Time;durP1;ratioP1;P1;durP2;ratioP2;P2;SDS_P1;SDS_P2;PMS_P1;PMS_P2;Temp;Humidity;BMP_temperature;BMP_pressure;BME280_temperature;BME280_humidity;BME280_pressure;Samples;Min_cycle;Max_cycle;Signal;HPM_P1;HPM_P2
2022/05/24 00:01:23;;;;;;;8.90;2.30;;;18.80;59.40;;;;;;5046139;28;20032;-70
2022/05/24 00:03:49;;;;;;;7.03;2.13;;;18.80;59.50;;;;;;5017622;28;20022;-71
2022/05/24 00:06:15;;;;;;;7.50;3.00;;;18.80;59.70;;;;;;5047827;28;20013;-70
2022/05/24 00:08:42;;;;;;;6.15;2.80;;;18.80;59.80;;;;;;5038873;28;20071;-69
2022/05/24 00:11:07;;;;;;;6.05;2.25;;;18.80;60.10;;;;;;5040571;28;20510;-71
2022/05/24 00:13:33;;;;;;;4.78;2.70;;;18.80;60.20;;;;;;5046555;28;20025;-69
2022/05/24 00:15:59;;;;;;;4.28;2.15;;;18.80;60.60;;;;;;5035196;28;20025;-70
2022/05/24 00:18:27;;;;;;;6.43;2.80;;;18.80;60.60;;;;;;5046000;28;20092;-70
2022/05/24 00:20:57;;;;;;;4.57;2.05;;;18.80;60.90;;;;;;5041346;28;20025;-69
2022/05/24 00:23:24;;;;;;;5.00;2.08;;;18.80;60.80;;;;;;5038159;28;20039;-71
2022/05/24 00:25:53;;;;;;;6.85;2.60;;;18.80;61.00;;;;;;5048124;28;20040;-69
2022/05/24 00:28:20;;;;;;;3.88;2.95;;;18.80;61.00;;;;;;5035773;28;20028;-70
2022/05/24 00:30:48;;;;;;;4.50;2.95;;;18.70;61.30;;;;;;5043113;28;20076;-70
2022/05/24 00:33:14;;;;;;;5.40;2.58;;;18.70;61.40;;;;;;5043400;28;20029;-70
2022/05/24 00:35:40;;;;;;;7.10;3.50;;;18.70;61.50;;;;;;5017497;28;20021;-70
2022/05/24 00:38:09;;;;;;;7.68;2.95;;;18.70;61.70;;;;;;5047726;28;20498;-69
2022/05/24 00:41:09;;;;;;;3.05;2.47;;;18.60;62.10;;;;;;5038383;28;20023;-70
2022/05/24 00:43:43;;;;;;;7.63;2.15;;;18.50;62.70;;;;;;5036459;28;20084;-69
2022/05/24 00:46:15;;;;;;;4.00;2.40;;;18.40;63.00;;;;;;5030059;28;20294;-70
2022/05/24 00:49:16;;;;;;;5.18;3.13;;;18.30;63.40;;;;;;5038968;28;20506;-69
2022/05/24 00:51:49;;;;;;;5.55;2.17;;;18.20;63.60;;;;;;4996478;28;20124;-71
2022/05/24 00:54:15;;;;;;;5.65;2.83;;;18.10;63.90;;;;;;5019916;28;20103;-70
2022/05/24 00:57:06;;;;;;;6.88;3.13;;;18.00;64.30;;;;;;5043630;28;20104;-70
2022/05/24 00:59:35;;;;;;;;;;;18.00;64.50;;;;;;5046411;28;20032;-71
2022/05/24 01:02:02;;;;;;;6.93;3.00;;;18.00;64.80;;;;;;5034794;28;19909;-71
2022/05/24 01:04:27;;;;;;;6.78;2.75;;;18.00;64.80;;;;;;5045378;28;20072;-70
2022/05/24 01:06:53;;;;;;;6.65;2.50;;;18.00;64.60;;;;;;5040539;28;20021;-71
2022/05/24 01:09:41;;;;;;;7.15;3.15;;;18.10;64.50;;;;;;5020081;28;20445;-70
2022/05/24 01:12:20;;;;;;;5.03;2.60;;;18.10;64.40;;;;;;5047606;28;20390;-70
2022/05/24 01:14:47;;;;;;;5.00;2.60;;;18.10;64.10;;;;;;5039525;28;20554;-72
2022/05/24 01:17:13;;;;;;;3.33;2.40;;;18.20;64.00;;;;;;5021113;28;20029;-71
2022/05/24 01:19:43;;;;;;;7.68;2.58;;;18.10;64.30;;;;;;5046515;28;20031;-71
2022/05/24 01:22:40;;;;;;;5.57;2.95;;;18.10;64.50;;;;;;5034542;28;20028;-70
2022/05/24 01:25:14;;;;;;;6.35;2.83;;;18.00;64.80;;;;;;5039881;28;20033;-70
2022/05/24 01:27:40;;;;;;;3.42;2.58;;;18.00;65.00;;;;;;5028653;28;20031;-70
2022/05/24 01:30:08;;;;;;;4.47;2.30;;;18.00;65.00;;;;;;5034526;28;20394;-70
2022/05/24 01:38:10;;;;;;;6.20;2.85;;;18.00;65.20;;;;;;5047243;28;20112;-70
2022/05/24 01:40:36;;;;;;;7.43;2.53;;;18.00;65.30;;;;;;5038364;28;20494;-69
2022/05/24 01:43:02;;;;;;;4.70;2.42;;;18.00;65.40;;;;;;5040213;28;20034;-70
2022/05/24 01:45:35;;;;;;;5.55;2.22;;;18.00;65.50;;;;;;5046340;28;20024;-70
2022/05/24 01:48:11;;;;;;;8.75;3.05;;;18.00;65.60;;;;;;5037400;28;20033;-69
2022/05/24 01:50:39;;;;;;;4.63;2.63;;;18.00;65.50;;;;;;5047069;28;20014;-69
2022/05/24 01:53:14;;;;;;;3.47;2.78;;;18.10;65.60;;;;;;5045970;28;20037;-69
2022/05/24 01:55:44;;;;;;;7.78;2.95;;;18.10;65.70;;;;;;5038607;28;20067;-71
2022/05/24 01:58:16;;;;;;;5.00;2.45;;;18.00;65.90;;;;;;5050561;28;20021;-69
2022/05/24 02:00:47;;;;;;;5.15;2.70;;;18.00;65.90;;;;;;5042311;28;20028;-69
2022/05/24 02:03:13;;;;;;;6.73;2.57;;;18.00;66.00;;;;;;5024920;28;20499;-73
2022/05/24 02:05:41;;;;;;;4.50;2.63;;;18.00;66.20;;;;;;5049863;28;20098;-69
2022/05/24 02:08:10;;;;;;;4.43;3.10;;;18.00;66.40;;;;;;5038172;28;20028;-72
2022/05/24 02:10:43;;;;;;;7.07;3.00;;;18.00;66.50;;;;;;5047081;28;20014;-70
2022/05/24 02:13:10;;;;;;;8.38;2.75;;;18.00;66.70;;;;;;5045810;28;20499;-71
2022/05/24 02:15:41;;;;;;;3.47;2.67;;;18.00;66.80;;;;;;5020956;28;20021;-70
2022/05/24 02:18:17;;;;;;;4.35;2.90;;;17.90;66.90;;;;;;5050347;28;20146;-70
2022/05/24 02:20:45;;;;;;;6.13;2.58;;;18.00;67.20;;;;;;5024089;28;20391;-70
2022/05/24 02:23:15;;;;;;;4.90;2.97;;;17.90;67.60;;;;;;5042213;28;20100;-71
2022/05/24 02:25:58;;;;;;;5.35;2.13;;;17.90;67.60;;;;;;5050018;28;20104;-68
2022/05/24 02:28:29;;;;;;;3.70;2.65;;;18.00;67.40;;;;;;5024924;28;20021;-69
2022/05/24 02:30:59;;;;;;;9.77;2.72;;;18.00;67.30;;;;;;5044220;28;20025;-68
2022/05/24 02:33:24;;;;;;;5.70;2.60;;;18.00;67.50;;;;;;5047478;28;20032;-69
2022/05/24 02:35:50;;;;;;;4.00;2.40;;;18.00;67.20;;;;;;5019204;28;20018;-71
2022/05/24 02:38:18;;;;;;;5.88;2.83;;;18.00;67.30;;;;;;5049052;28;20083;-69
2022/05/24 02:43:27;;;;;;;4.63;2.75;;;18.10;67.40;;;;;;5039707;28;20113;-68
2022/05/24 02:45:53;;;;;;;2.75;2.25;;;18.20;67.50;;;;;;5032097;28;20111;-69
2022/05/24 02:48:19;;;;;;;3.38;2.63;;;18.10;67.60;;;;;;5037611;28;20052;-69
2022/05/24 02:50:44;;;;;;;4.85;2.65;;;18.20;67.90;;;;;;5045155;28;20463;-70
2022/05/24 02:53:10;;;;;;;3.03;1.95;;;18.10;68.20;;;;;;5045086;28;20045;-69
2022/05/24 02:55:36;;;;;;;11.27;3.10;;;18.10;68.30;;;;;;5020157;28;20025;-69
2022/05/24 02:58:02;;;;;;;3.45;2.15;;;18.10;68.90;;;;;;5048799;28;20086;-69
2022/05/24 03:00:28;;;;;;;5.38;2.58;;;18.10;69.20;;;;;;5039299;28;20484;-69
2022/05/24 03:02:54;;;;;;;4.15;2.45;;;18.20;69.30;;;;;;5043723;28;20079;-69
2022/05/24 03:05:21;;;;;;;3.15;2.10;;;18.20;69.60;;;;;;5046624;28;20029;-70
2022/05/24 03:10:32;;;;;;;7.03;2.88;;;18.30;69.50;;;;;;5047130;28;20091;-69
2022/05/24 03:15:43;;;;;;;13.55;6.60;;;18.40;69.60;;;;;;5037028;28;20552;-69
2022/05/24 03:18:11;;;;;;;4.53;2.60;;;18.50;69.70;;;;;;5049030;28;20048;-69
2022/05/24 03:20:40;;;;;;;4.00;2.22;;;18.50;69.70;;;;;;5039902;28;20021;-69
2022/05/24 03:23:06;;;;;;;5.25;2.33;;;18.50;69.70;;;;;;5041588;28;20025;-70
2022/05/24 03:25:33;;;;;;;8.85;4.70;;;18.50;70.20;;;;;;5047495;28;20032;-71
2022/05/24 03:28:03;;;;;;;10.18;4.25;;;18.50;70.30;;;;;;5035684;28;20084;-69
2022/05/24 03:30:30;;;;;;;11.43;2.40;;;18.50;70.30;;;;;;5046417;28;20395;-69
2022/05/24 03:32:56;;;;;;;9.32;4.43;;;18.50;70.30;;;;;;5042257;28;20104;-69
2022/05/24 03:35:22;;;;;;;3.88;2.03;;;18.50;70.60;;;;;;5039280;28;20543;-69
2022/05/24 03:37:48;;;;;;;8.90;3.65;;;18.60;70.50;;;;;;5048693;28;20025;-69
2022/05/24 03:40:13;;;;;;;11.40;4.22;;;18.60;70.80;;;;;;5018637;28;20047;-69
2022/05/24 03:42:39;;;;;;;4.28;2.30;;;18.60;71.40;;;;;;5044836;28;20036;-69
2022/05/24 03:45:08;;;;;;;10.02;3.90;;;18.60;72.30;;;;;;5043328;28;20036;-69
2022/05/24 03:47:34;;;;;;;12.60;4.45;;;18.60;74.40;;;;;;5036759;28;20025;-69
2022/05/24 03:50:00;;;;;;;5.10;2.60;;;18.70;74.00;;;;;;5048980;28;20028;-70
2022/05/24 03:52:25;;;;;;;5.22;2.22;;;18.60;74.10;;;;;;5038074;28;20374;-70
2022/05/24 03:54:51;;;;;;;7.45;2.95;;;18.60;73.70;;;;;;5043444;28;20056;-70
2022/05/24 04:00:01;;;;;;;6.68;2.50;;;18.60;74.30;;;;;;5036106;28;20116;-70
2022/05/24 04:02:27;;;;;;;7.32;2.30;;;18.70;74.10;;;;;;5046144;28;20021;-69
2022/05/24 04:04:52;;;;;;;2.97;2.33;;;18.70;73.00;;;;;;5041512;28;20028;-70
2022/05/24 04:07:18;;;;;;;2.95;1.67;;;;;;;;;;5039050;28;20021;-71
2022/05/24 04:09:44;;;;;;;4.53;2.47;;;18.90;72.70;;;;;;5047373;28;20106;-71
2022/05/24 04:12:10;;;;;;;4.50;1.88;;;19.00;72.50;;;;;;5035309;28;20013;-70
2022/05/24 04:14:35;;;;;;;5.45;2.30;;;19.10;72.10;;;;;;5044655;28;20017;-69
2022/05/24 04:17:01;;;;;;;6.30;2.40;;;19.20;71.90;;;;;;5041926;28;20060;-70
2022/05/24 04:19:27;;;;;;;5.13;1.80;;;19.40;70.90;;;;;;5035928;28;20025;-71
2022/05/24 04:21:53;;;;;;;3.03;1.90;;;19.50;69.60;;;;;;5047884;28;20398;-70
2022/05/24 04:24:19;;;;;;;3.95;2.13;;;19.60;69.50;;;;;;5036213;28;20046;-69
2022/05/24 04:26:45;;;;;;;4.45;2.80;;;19.70;69.20;;;;;;5027105;28;20051;-69
2022/05/24 04:29:12;;;;;;;8.52;3.05;;;20.00;68.30;;;;;;5038432;28;20570;-70
2022/05/24 04:31:38;;;;;;;6.65;2.90;;;;;;;;;;5047170;28;20035;-69
2022/05/24 04:34:04;;;;;;;7.80;2.78;;;20.20;66.80;;;;;;5032028;28;20112;-69
2022/05/24 04:36:31;;;;;;;6.50;2.50;;;20.30;66.10;;;;;;5037332;28;20009;-69
2022/05/24 04:38:57;;;;;;;4.38;1.75;;;20.30;65.80;;;;;;5041259;28;20107;-68
2022/05/24 04:44:07;;;;;;;7.28;2.22;;;20.20;65.90;;;;;;5035022;28;20470;-70
2022/05/24 04:49:20;;;;;;;5.75;1.73;;;20.30;65.10;;;;;;5043886;28;20040;-70
2022/05/24 04:51:45;;;;;;;7.13;2.17;;;20.50;64.80;;;;;;5034490;28;20029;-70
2022/05/24 04:54:11;;;;;;;3.85;1.60;;;20.50;64.10;;;;;;5047353;28;20017;-70
2022/05/24 04:56:37;;;;;;;5.65;1.65;;;20.70;63.70;;;;;;5038129;28;20104;-70
2022/05/24 04:59:02;;;;;;;5.10;1.75;;;21.00;63.40;;;;;;5040180;28;20022;-70
2022/05/24 05:01:28;;;;;;;4.35;1.85;;;21.40;62.20;;;;;;5045432;28;20029;-69
2022/05/24 05:03:54;;;;;;;3.75;1.73;;;;;;;;;;5034479;28;20029;-68
2022/05/24 05:06:20;;;;;;;2.60;1.40;;;;;;;;;;5046229;28;20103;-70
2022/05/24 05:08:46;;;;;;;3.25;1.30;;;;;;;;;;5038712;28;20028;-70
2022/05/24 05:11:12;;;;;;;1.80;1.23;;;;;;;;;;5038968;28;20041;-70
2022/05/24 05:13:38;;;;;;;8.07;1.58;;;;;;;;;;5046506;28;20021;-69
2022/05/24 05:16:04;;;;;;;4.00;1.40;;;;;;;;;;5033999;28;20505;-70
2022/05/24 05:18:30;;;;;;;3.20;1.85;;;;;;;;;;5044354;28;20049;-70
2022/05/24 05:20:56;;;;;;;5.57;1.17;;;;;;;;;;5043341;28;20055;-70
2022/05/24 05:23:22;;;;;;;12.68;2.55;;;;;;;;;;5041505;28;20034;-69
2022/05/24 05:25:48;;;;;;;5.72;1.58;;;;;;;;;;5052225;28;20082;-70
2022/05/24 05:28:15;;;;;;;3.10;1.33;;;;;;;;;;5021911;28;20017;-72
2022/05/24 05:33:26;;;;;;;2.33;1.33;;;;;;;;;;5054228;28;20037;-71
2022/05/24 05:35:52;;;;;;;3.38;1.67;;;;;;;;;;5040612;28;20080;-74
2022/05/24 05:38:18;;;;;;;4.93;1.80;;;;;;;;;;5049516;28;20026;-71
2022/05/24 05:40:45;;;;;;;3.38;1.17;;;;;;;;;;5041852;28;20029;-71
2022/05/24 05:43:11;;;;;;;2.08;1.05;;;;;;;;;;5023729;28;20033;-69
2022/05/24 05:45:38;;;;;;;4.97;1.40;;;;;;;;;;5047856;28;20029;-71
2022/05/24 05:48:04;;;;;;;1.75;1.25;;;;;;;;;;5017434;28;20025;-70
2022/05/24 05:50:30;;;;;;;4.15;1.60;;;;;;;;;;5028183;28;20550;-71
2022/05/24 05:52:56;;;;;;;5.00;1.58;;;;;;;;;;5018770;28;20108;-70
2022/05/24 05:55:24;;;;;;;7.88;2.03;;;;;;;;;;5034302;28;20029;-69
2022/05/24 05:57:50;;;;;;;5.93;1.40;;;;;;;;;;5050004;28;20041;-70
2022/05/24 06:00:17;;;;;;;5.32;1.63;;;;;;;;;;5020423;28;20032;-73
2022/05/24 06:02:42;;;;;;;2.25;1.20;;;;;;;;;;5046111;28;20017;-71
2022/05/24 06:05:10;;;;;;;3.33;1.02;;;;;;;;;;5045208;28;20051;-68
2022/05/24 06:07:36;;;;;;;4.47;1.63;;;;;;;;;;5036960;28;20028;-68
2022/05/24 06:10:02;;;;;;;5.07;1.92;;;;;;;;;;5048077;28;20033;-69
2022/05/24 06:12:28;;;;;;;3.30;1.83;;;;;;;;;;5038431;28;20016;-69
2022/05/24 06:14:54;;;;;;;3.60;1.50;;;;;;;;;;5041801;28;20539;-70
2022/05/24 06:17:19;;;;;;;3.60;1.80;;;;;;;;;;5045828;28;20047;-69
2022/05/24 06:19:45;;;;;;;2.65;1.27;;;;;;;;;;5037017;28;20026;-70
2022/05/24 06:22:11;;;;;;;6.63;1.83;;;;;;;;;;5050013;28;20022;-70
2022/05/24 06:24:37;;;;;;;4.32;1.38;;;;;;;;;;5023022;28;20025;-70
2022/05/24 06:27:04;;;;;;;3.10;1.30;;;;;;;;;;5042358;28;20041;-68
2022/05/24 06:29:35;;;;;;;3.20;1.40;;;;;;;;;;5029773;28;20056;-70
2022/05/24 06:32:03;;;;;;;4.07;1.52;;;;;;;;;;5035346;28;20018;-71
2022/05/24 06:34:30;;;;;;;4.05;1.35;;;;;;;;;;5047222;28;20029;-71
2022/05/24 06:36:56;;;;;;;3.72;1.50;;;;;;;;;;5042962;28;20048;-71
2022/05/24 06:39:22;;;;;;;5.43;1.45;;;;;;;;;;5039403;28;20108;-71
2022/05/24 06:41:48;;;;;;;2.17;1.23;;;;;;;;;;5049725;28;20433;-71
2022/05/24 06:44:14;;;;;;;2.95;1.33;;;;;;;;;;5037173;28;20013;-71
2022/05/24 06:46:40;;;;;;;3.22;1.15;;;;;;;;;;5027963;28;20108;-70
2022/05/24 06:49:07;;;;;;;4.05;1.20;;;;;;;;;;5043998;28;20142;-70
2022/05/24 06:51:33;;;;;;;3.67;1.17;;;;;;;;;;5020889;28;20375;-75
2022/05/24 06:53:59;;;;;;;5.22;1.48;;;;;;;;;;5042858;28;20140;-73
2022/05/24 06:56:25;;;;;;;2.88;1.13;;;;;;;;;;5038549;28;20045;-74
2022/05/24 07:02:24;;;;;;;5.00;1.40;;;;;;;;;;5043770;28;20088;-73
2022/05/24 07:04:21;;;;;;;10.05;6.72;;;29.00;40.80;;;;;;5023588;28;20103;-73
2022/05/24 07:06:46;;;;;;;154.95;101.78;;;28.40;41.60;;;;;;5044772;28;20017;-72
2022/05/24 07:09:12;;;;;;;9.73;5.63;;;28.40;42.30;;;;;;5044919;28;20037;-73
2022/05/24 07:11:37;;;;;;;9.40;5.53;;;28.30;42.40;;;;;;5037690;28;20036;-73
2022/05/24 07:14:03;;;;;;;12.38;8.63;;;29.00;40.60;;;;;;5043643;28;20369;-73
2022/05/24 07:16:28;;;;;;;9.30;6.93;;;30.50;38.60;;;;;;5033216;28;20040;-73
2022/05/24 07:18:54;;;;;;;6.35;3.67;;;;;;;;;;5043365;28;20402;-73
2022/05/24 07:21:20;;;;;;;7.13;3.08;;;;;;;;;;5039628;28;20095;-75
2022/05/24 07:23:46;;;;;;;3.92;1.90;;;;;;;;;;5049323;28;20051;-73
2022/05/24 07:26:16;;;;;;;13.10;6.72;;;;;;;;;;5037087;28;20025;-75
2022/05/24 07:28:43;;;;;;;3.97;2.55;;;;;;;;;;5044174;28;20022;-75
2022/05/24 07:31:09;;;;;;;3.80;1.58;;;;;;;;;;5044043;28;20112;-73
2022/05/24 07:33:35;;;;;;;7.05;3.15;;;;;;;;;;5037528;28;20038;-75
2022/05/24 07:36:01;;;;;;;7.65;2.47;;;;;;;;;;5041947;28;20379;-73
2022/05/24 07:38:27;;;;;;;20.33;14.63;;;;;;;;;;5046305;28;20105;-74
2022/05/24 07:46:23;;;;;;;8.43;5.63;;;28.20;42.90;;;;;;5023503;28;20512;-74
2022/05/24 07:48:49;;;;;;;27.48;17.67;;;27.40;45.10;;;;;;5033928;28;20119;-74
2022/05/24 07:51:15;;;;;;;14.40;7.50;;;27.40;45.70;;;;;;5039809;28;20100;-74
2022/05/24 07:53:41;;;;;;;12.73;7.70;;;27.50;45.70;;;;;;5047548;28;20160;-71
2022/05/24 07:56:07;;;;;;;10.20;3.38;;;27.50;45.40;;;;;;5050731;28;20025;-74
2022/05/24 07:58:33;;;;;;;13.75;8.02;;;27.70;44.90;;;;;;5050545;28;20029;-73
2022/05/24 08:00:59;;;;;;;8.52;4.93;;;27.70;45.20;;;;;;5051964;28;20086;-74
2022/05/24 08:03:26;;;;;;;10.00;6.82;;;27.40;45.80;;;;;;5051026;28;20105;-73
2022/05/24 08:05:53;;;;;;;15.55;7.40;;;26.90;46.70;;;;;;5051414;28;20048;-74
2022/05/24 08:08:19;;;;;;;6.03;2.78;;;26.50;47.20;;;;;;5034787;28;20035;-74
2022/05/24 08:10:45;;;;;;;4.97;2.50;;;26.20;48.00;;;;;;5051953;28;20028;-72
2022/05/24 08:13:15;;;;;;;9.30;6.03;;;26.00;48.80;;;;;;5052003;28;20032;-73
2022/05/24 08:15:41;;;;;;;5.68;3.03;;;25.80;49.00;;;;;;5051714;28;20060;-74
2022/05/24 08:18:07;;;;;;;8.77;4.43;;;25.60;50.00;;;;;;5051540;28;20402;-74
2022/05/24 08:20:34;;;;;;;5.68;2.22;;;25.40;50.10;;;;;;5052031;28;20025;-73
2022/05/24 08:23:00;;;;;;;9.43;5.75;;;25.50;49.90;;;;;;5051999;28;20020;-73
2022/05/24 08:25:28;;;;;;;8.43;4.80;;;25.50;49.90;;;;;;5047641;28;20160;-73
2022/05/24 08:27:54;;;;;;;4.00;2.85;;;25.30;50.40;;;;;;5031387;28;20025;-73
2022/05/24 08:30:20;;;;;;;12.30;6.03;;;25.40;50.20;;;;;;5013829;28;20257;-74
2022/05/24 08:32:49;;;;;;;2.25;1.52;;;25.50;50.20;;;;;;5031329;28;20021;-74
2022/05/24 08:35:17;;;;;;;7.38;5.13;;;25.40;50.30;;;;;;5031577;28;20021;-73
2022/05/24 08:37:43;;;;;;;7.60;2.28;;;25.20;51.10;;;;;;5013578;28;20144;-72
2022/05/24 08:40:11;;;;;;;4.65;2.45;;;25.00;51.30;;;;;;5031548;28;20025;-73
2022/05/24 08:42:42;;;;;;;11.48;4.03;;;25.10;50.60;;;;;;5031955;28;20374;-73
2022/05/24 08:48:26;;;;;;;17.00;8.33;;;25.40;50.50;;;;;;5031639;28;20407;-72
2022/05/24 08:51:01;;;;;;;13.65;4.15;;;25.40;50.70;;;;;;5031418;28;20351;-73
2022/05/24 08:53:42;;;;;;;10.45;4.22;;;25.70;50.00;;;;;;5031411;28;20022;-73
2022/05/24 08:56:11;;;;;;;14.65;8.25;;;26.90;47.50;;;;;;5036770;28;20097;-74
2022/05/24 08:58:39;;;;;;;8.80;5.15;;;;;;;;;;5037792;28;20032;-74
2022/05/24 09:01:13;;;;;;;7.47;4.78;;;;;;;;;;5037381;28;20022;-74
2022/05/24 09:03:39;;;;;;;4.45;2.00;;;;;;;;;;5037497;28;20052;-73
2022/05/24 09:06:10;;;;;;;9.13;6.80;;;;;;;;;;5037999;28;20072;-73
2022/05/24 09:08:59;;;;;;;9.95;6.82;;;;;;;;;;5019764;28;20032;-74
2022/05/24 09:11:31;;;;;;;12.70;6.93;;;;;;;;;;5037761;28;20041;-73
2022/05/24 09:14:16;;;;;;;6.00;2.50;;;;;;;;;;5020088;28;20376;-72
2022/05/24 09:16:54;;;;;;;8.63;3.88;;;;;;;;;;5037417;28;20030;-72
2022/05/24 09:19:25;;;;;;;7.15;3.88;;;;;;;;;;5037286;28;20017;-73
2022/05/24 09:21:54;;;;;;;;;;;;;;;;;;5037997;28;20100;-72
2022/05/24 09:24:31;;;;;;;3.53;1.85;;;;;;;;;;5037909;28;19905;-72
2022/05/24 09:27:08;;;;;;;4.65;3.17;;;;;;;;;;5037591;28;20058;-73
2022/05/24 09:29:35;;;;;;;4.93;2.95;;;;;;;;;;5037878;28;20018;-72
2022/05/24 09:32:05;;;;;;;1.90;1.60;;;;;;;;;;5037809;28;20383;-72
2022/05/24 09:34:34;;;;;;;11.00;6.13;;;;;;;;;;5037719;28;20056;-72
2022/05/24 09:37:03;;;;;;;8.73;3.85;;;28.50;41.90;;;;;;5037422;28;20021;-71
2022/05/24 09:39:38;;;;;;;6.85;4.32;;;28.30;42.90;;;;;;5019590;28;20032;-73
2022/05/24 09:42:21;;;;;;;7.95;4.97;;;27.40;44.90;;;;;;5019574;28;20025;-72
2022/05/24 09:44:58;;;;;;;4.68;2.50;;;27.00;45.00;;;;;;5037710;28;20495;-73
2022/05/24 09:47:33;;;;;;;4.90;2.00;;;26.60;46.90;;;;;;5019827;28;20434;-73
2022/05/24 09:50:23;;;;;;;3.63;2.38;;;26.00;48.80;;;;;;5037768;28;20021;-73
2022/05/24 09:53:04;;;;;;;12.52;8.05;;;25.20;55.00;;;;;;5037562;28;20032;-73
2022/05/24 09:55:38;;;;;;;7.50;3.55;;;24.70;58.60;;;;;;5037387;28;20080;-73
2022/05/24 09:58:21;;;;;;;6.40;4.55;;;24.90;59.50;;;;;;5036763;28;20053;-73
2022/05/24 10:01:10;;;;;;;9.02;5.20;;;25.20;55.00;;;;;;5037424;28;20029;-72
2022/05/24 10:03:45;;;;;;;3.30;2.55;;;25.50;53.10;;;;;;5036572;28;20041;-73
2022/05/24 10:06:23;;;;;;;3.90;2.50;;;26.10;52.30;;;;;;5036451;28;20029;-73
2022/05/24 10:08:56;;;;;;;5.30;3.47;;;26.30;49.60;;;;;;5033413;28;20491;-73
2022/05/24 10:11:29;;;;;;;6.78;2.63;;;26.20;48.30;;;;;;5034332;28;20022;-73
2022/05/24 10:14:25;;;;;;;4.80;2.00;;;26.70;48.20;;;;;;5034010;28;20064;-73
2022/05/24 10:17:04;;;;;;;12.38;7.30;;;27.10;47.10;;;;;;5034155;28;20365;-73
2022/05/24 10:19:35;;;;;;;5.60;3.70;;;27.20;46.70;;;;;;5033964;28;20057;-71
2022/05/24 10:22:15;;;;;;;10.85;7.15;;;27.30;46.80;;;;;;5034000;28;20437;-72
2022/05/24 10:24:46;;;;;;;5.35;2.20;;;27.70;46.10;;;;;;5034098;28;20029;-72
2022/05/24 10:27:37;;;;;;;5.88;3.55;;;28.20;44.50;;;;;;5029262;28;20030;-72
2022/05/24 10:30:08;;;;;;;3.42;2.55;;;28.40;45.00;;;;;;5032591;28;20033;-73
2022/05/24 10:39:12;;;;;;;8.52;4.47;;;28.50;42.80;;;;;;5006392;28;20033;-73
2022/05/24 10:41:43;;;;;;;6.00;4.10;;;28.50;43.30;;;;;;5034004;28;20022;-73
2022/05/24 10:44:15;;;;;;;10.93;7.13;;;28.70;42.00;;;;;;5033344;28;20060;-73
2022/05/24 10:46:50;;;;;;;3.78;2.97;;;28.70;42.40;;;;;;5015653;28;20435;-73
2022/05/24 10:49:28;;;;;;;8.32;4.25;;;28.30;43.30;;;;;;5015003;28;20030;-72
2022/05/24 10:52:15;;;;;;;4.88;3.40;;;28.20;43.50;;;;;;5033492;28;20021;-73
2022/05/24 10:55:03;;;;;;;7.03;2.70;;;28.20;43.30;;;;;;5033340;28;20052;-72
2022/05/24 10:57:33;;;;;;;4.32;1.60;;;28.00;44.20;;;;;;5033187;28;20502;-71
2022/05/24 11:00:16;;;;;;;11.45;4.35;;;28.00;44.20;;;;;;5033448;28;20376;-73
2022/05/24 11:03:07;;;;;;;5.85;3.22;;;28.00;44.00;;;;;;5033576;28;20029;-74
2022/05/24 11:05:54;;;;;;;4.43;3.60;;;28.30;43.40;;;;;;5015586;28;20067;-74
2022/05/24 11:08:52;;;;;;;6.93;3.60;;;28.70;42.70;;;;;;5032294;28;20021;-73
2022/05/24 11:11:41;;;;;;;3.63;1.90;;;28.90;42.20;;;;;;5033032;28;20013;-73
2022/05/24 11:14:23;;;;;;;6.63;4.03;;;29.00;41.30;;;;;;5033343;28;20025;-73
2022/05/24 11:16:51;;;;;;;6.53;2.85;;;29.20;39.30;;;;;;5032970;28;20391;-73
2022/05/24 11:19:22;;;;;;;6.90;4.32;;;29.30;39.00;;;;;;5013391;28;20502;-73
2022/05/24 11:22:02;;;;;;;5.82;2.50;;;29.20;37.90;;;;;;5032866;28;20458;-72
2022/05/24 11:24:46;;;;;;;3.17;1.23;;;29.30;38.60;;;;;;5014841;28;20065;-72
2022/05/24 11:27:15;;;;;;;5.18;3.53;;;29.40;36.80;;;;;;5014550;28;20032;-73
2022/05/24 11:30:19;;;;;;;4.38;2.53;;;28.90;37.90;;;;;;5032953;28;20018;-73
2022/05/24 11:32:50;;;;;;;11.73;6.82;;;28.60;37.10;;;;;;5033025;28;20395;-71
2022/05/24 11:35:24;;;;;;;5.82;3.35;;;28.20;38.40;;;;;;5032804;28;20064;-73
2022/05/24 11:37:55;;;;;;;2.40;1.58;;;28.10;39.00;;;;;;5032691;28;20021;-73
2022/05/24 11:40:24;;;;;;;;;;;28.00;38.60;;;;;;5033077;28;20478;-74
2022/05/24 11:42:50;;;;;;;5.20;3.30;;;28.20;38.10;;;;;;5032514;28;20163;-73
2022/05/24 11:45:31;;;;;;;4.95;2.80;;;28.20;38.90;;;;;;5032630;28;20040;-74
2022/05/24 11:48:05;;;;;;;4.68;1.63;;;28.40;37.80;;;;;;5032229;28;20033;-73
2022/05/24 11:50:30;;;;;;;6.88;2.75;;;28.60;37.20;;;;;;5032893;28;20022;-73
2022/05/24 11:53:06;;;;;;;7.38;2.63;;;28.90;37.20;;;;;;5032707;28;20099;-73
2022/05/24 11:55:43;;;;;;;1.73;1.02;;;29.20;36.60;;;;;;5032601;28;20399;-74
2022/05/24 11:58:20;;;;;;;1.67;1.55;;;29.20;35.00;;;;;;5031362;28;20032;-73
2022/05/24 12:01:05;;;;;;;4.85;1.30;;;28.90;34.20;;;;;;5031701;28;20025;-73
2022/05/24 12:09:10;;;;;;;6.43;2.50;;;28.70;34.70;;;;;;5031325;28;20079;-73
2022/05/24 12:11:36;;;;;;;7.15;2.33;;;28.50;35.20;;;;;;5031608;28;20075;-74
2022/05/24 12:14:11;;;;;;;5.30;3.00;;;28.50;35.90;;;;;;5032219;28;20017;-74
2022/05/24 12:17:08;;;;;;;5.75;3.17;;;28.50;35.50;;;;;;5032015;28;20514;-73
2022/05/24 12:19:42;;;;;;;15.27;4.10;;;28.30;35.80;;;;;;5031959;28;20041;-75
2022/05/24 12:22:13;;;;;;;3.45;1.67;;;28.00;36.40;;;;;;5031964;28;20386;-73
2022/05/24 12:24:38;;;;;;;4.82;1.98;;;28.10;36.50;;;;;;5032055;28;20022;-73
2022/05/24 12:27:42;;;;;;;3.78;1.42;;;28.10;36.50;;;;;;5013975;28;20028;-73
2022/05/24 12:30:31;;;;;;;5.05;2.83;;;28.00;36.30;;;;;;5031063;28;20022;-73
2022/05/24 12:33:13;;;;;;;5.25;2.33;;;28.00;36.80;;;;;;5032074;28;20498;-74
2022/05/24 12:35:47;;;;;;;4.28;1.52;;;27.70;37.80;;;;;;5032224;28;20045;-73
2022/05/24 12:38:18;;;;;;;4.80;2.63;;;27.50;37.70;;;;;;5030972;28;20029;-73
2022/05/24 12:40:44;;;;;;;4.15;2.17;;;27.30;38.50;;;;;;5030905;28;20021;-74
2022/05/24 12:43:16;;;;;;;3.95;1.55;;;27.00;38.50;;;;;;5031708;28;20201;-73
2022/05/24 12:45:44;;;;;;;3.70;1.70;;;27.00;39.30;;;;;;5013823;28;20025;-74
2022/05/24 12:48:24;;;;;;;5.55;3.05;;;26.80;39.50;;;;;;5031465;28;20056;-73
2022/05/24 12:51:05;;;;;;;2.07;1.10;;;26.80;39.80;;;;;;5031822;28;20017;-73
2022/05/24 12:53:31;;;;;;;6.72;2.60;;;26.60;40.00;;;;;;5031300;28;20033;-73
2022/05/24 12:56:14;;;;;;;4.70;1.30;;;26.50;39.90;;;;;;5031546;28;20373;-73
2022/05/24 12:58:46;;;;;;;4.93;2.47;;;26.60;39.40;;;;;;5030811;28;20032;-74
2022/05/24 13:01:20;;;;;;;2.85;1.67;;;26.30;39.30;;;;;;5013902;28;20434;-73
2022/05/24 13:03:57;;;;;;;2.22;1.10;;;26.10;39.50;;;;;;5030953;28;20033;-74
2022/05/24 13:06:31;;;;;;;4.00;1.42;;;26.00;40.00;;;;;;5031228;28;20029;-73
2022/05/24 13:09:15;;;;;;;9.30;2.30;;;26.20;39.50;;;;;;5030750;28;20454;-73
2022/05/24 13:11:42;;;;;;;3.03;1.42;;;26.10;40.80;;;;;;5030958;28;20388;-73
2022/05/24 13:14:29;;;;;;;4.80;1.58;;;26.10;40.30;;;;;;5013561;28;20022;-73
2022/05/24 13:16:55;;;;;;;4.70;1.80;;;26.00;40.20;;;;;;5014112;28;20021;-73
2022/05/24 13:19:35;;;;;;;3.63;2.08;;;25.70;39.60;;;;;;5031370;28;20075;-74
2022/05/24 13:22:01;;;;;;;2.05;1.70;;;25.70;39.50;;;;;;5031631;28;20148;-73
2022/05/24 13:24:29;;;;;;;3.70;1.80;;;25.60;39.60;;;;;;5031550;28;20515;-74
2022/05/24 13:27:04;;;;;;;3.70;0.88;;;25.70;39.80;;;;;;5031191;28;20091;-73
2022/05/24 13:33:33;;;;;;;3.40;1.50;;;25.80;40.50;;;;;;5031333;28;20036;-73
2022/05/24 13:35:06;;;;;;;3.80;1.02;;;26.00;39.80;;;;;;5031203;28;20072;-72
2022/05/24 13:37:52;;;;;;;3.60;2.15;;;25.90;40.30;;;;;;5013358;28;20113;-73
2022/05/24 13:40:18;;;;;;;5.13;1.80;;;26.00;40.10;;;;;;5032204;28;20037;-74
2022/05/24 13:42:55;;;;;;;5.30;1.10;;;26.10;40.30;;;;;;5018462;28;20029;-74
2022/05/24 13:45:29;;;;;;;3.70;1.83;;;26.20;40.00;;;;;;5036780;28;20036;-74
2022/05/24 13:48:00;;;;;;;5.35;2.13;;;26.20;40.30;;;;;;5018287;28;20060;-71
2022/05/24 13:50:41;;;;;;;4.45;3.20;;;26.20;39.90;;;;;;5036332;28;20030;-74
2022/05/24 13:53:36;;;;;;;3.30;1.95;;;26.00;40.10;;;;;;5036354;28;20037;-74
2022/05/24 13:56:07;;;;;;;2.40;1.75;;;26.00;40.60;;;;;;5037099;28;20060;-74
2022/05/24 13:58:33;;;;;;;2.63;1.80;;;25.80;40.40;;;;;;5035273;28;20124;-73
2022/05/24 14:01:08;;;;;;;1.27;1.02;;;25.70;40.40;;;;;;5035578;28;20163;-73
2022/05/24 14:03:40;;;;;;;5.65;2.10;;;25.50;41.40;;;;;;5017724;28;20657;-74
2022/05/24 14:06:12;;;;;;;4.97;2.50;;;25.30;42.00;;;;;;5035127;28;20056;-73
2022/05/24 14:08:41;;;;;;;3.05;2.10;;;25.10;44.20;;;;;;5049783;22;20441;-73
2022/05/24 14:11:13;;;;;;;6.63;2.50;;;24.80;46.20;;;;;;4994803;28;20058;-74
2022/05/24 14:13:43;;;;;;;5.93;2.33;;;24.60;47.30;;;;;;4995134;28;20049;-73
2022/05/24 14:16:10;;;;;;;5.40;1.48;;;24.50;47.50;;;;;;4995679;28;20073;-75
2022/05/24 14:18:37;;;;;;;3.60;2.30;;;24.60;47.00;;;;;;4994813;28;20026;-72
2022/05/24 14:21:04;;;;;;;4.20;1.65;;;24.90;46.60;;;;;;4994920;28;20041;-73